Weather History for Peru, IL

Change the Weather History Date:

Wednesday, January 15, 2014

  Actual Average Record
Temperature  
Mean Temperature 18 °F -  
Max Temperature 23 °F 28 °F 46 °F (1987)
Min Temperature 14 °F 11 °F -19 °F (1972)
Degree Days  
Heating Degree Days 46    
Moisture  
Dew Point 12 °F    
Average Humidity 75    
Maximum Humidity 82    
Minimum Humidity 64    
Precipitation  
Precipitation 0.00 in - - ()
Sea Level Pressure  
Sea Level Pressure 30.03 in    
Wind  
Wind Speed 13 mph (West)    
Max Wind Speed 18 mph    
Max Gust Speed 24 mph    
Visibility 10 miles    
Events Snow    
Averages and records for this station are not official NWS values.
T = Trace of Precipitation, MM = Missing Value Source: NWS Daily Summary

Daily Weather History Graph

Daily Weather History Graph

Search for Another Location

Airport:

Trip Planner

Search our weather history database for the weather conditions in past years. The results will help you decide how hot, cold, wet, or windy it might be!

Date:

Astronomy

Jan. 15, 2014 Rise Set
Actual Time 7:20 AM CST 4:52 PM CST
Civil Twilight 6:49 AM CST 5:22 PM CST
Nautical Twilight 6:15 AM CST 5:56 PM CST
Astronomical Twilight 5:42 AM CST 6:29 PM CST
Moon 4:50 PM CST (1/15) 6:35 AM CST (1/15)
Length of Visible Light 10h 32m
Length of Day
9h 31m
Full, 100% of the Moon is Illuminated
Jan 15
Full
Jan 15
Full
Jan 23
Last Quarter
Jan 30
New
Feb 6
First Quarter

Hourly Weather History & Observations

Time (CST) Temp. Windchill Dew Point Humidity Pressure Visibility Wind Dir Wind Speed Gust Speed Precip Events Conditions
12:15 AM 21.6 °F 7.3 °F 16.7 °F 82% 29.97 in 5.0 mi WNW 17.3 mph 23.0 mph N/A Snow Light Snow
12:35 AM 21.6 °F 8.2 °F 16.5 °F 81% 29.97 in 7.0 mi WNW 15.0 mph - N/A Snow Light Snow
12:55 AM 21.7 °F 7.1 °F 15.8 °F 78% 29.98 in 10.0 mi WNW 18.4 mph - N/A Snow Light Snow
1:15 AM 21.2 °F 6.8 °F 15.8 °F 80% 29.98 in 10.0 mi WNW 17.3 mph 24.2 mph N/A Snow Light Snow
1:35 AM 21.0 °F 7.1 °F 15.1 °F 78% 29.99 in 10.0 mi WNW 16.1 mph - N/A Snow Light Snow
1:55 AM 20.7 °F 7.1 °F 14.7 °F 78% 30.00 in 10.0 mi WNW 15.0 mph 23.0 mph N/A   Overcast
2:15 AM 20.5 °F 7.4 °F 14.7 °F 78% 30.01 in 10.0 mi NW 13.8 mph - N/A   Overcast
2:35 AM 20.3 °F 6.1 °F 13.5 °F 75% 30.01 in 10.0 mi NW 16.1 mph 23.0 mph N/A   Overcast
2:55 AM 19.4 °F 4.5 °F 12.9 °F 76% 30.02 in 10.0 mi NW 17.3 mph - N/A   Mostly Cloudy
3:15 AM 19.4 °F 5.5 °F 13.8 °F 79% 30.03 in 7.0 mi NW 15.0 mph 18.4 mph N/A Snow Light Snow
3:35 AM 19.4 °F 4.5 °F 13.5 °F 78% 30.03 in 10.0 mi NW 17.3 mph 21.9 mph N/A Snow Light Snow
3:55 AM 19.0 °F 3.6 °F 12.6 °F 76% 30.03 in 10.0 mi NW 18.4 mph - N/A   Mostly Cloudy
4:15 AM 18.5 °F 6.8 °F 12.2 °F 76% 30.04 in 10.0 mi NW 10.4 mph - N/A   Mostly Cloudy
4:35 AM 18.9 °F 5.9 °F 12.4 °F 76% 30.04 in 10.0 mi NW 12.7 mph - N/A   Overcast
4:55 AM 17.8 °F 4.6 °F 11.3 °F 76% 30.05 in 10.0 mi NW 12.7 mph - N/A   Scattered Clouds
5:15 AM 17.6 °F 5.0 °F 11.3 °F 76% 30.05 in 10.0 mi NW 11.5 mph - N/A   Clear
5:35 AM 17.1 °F 5.8 °F 11.3 °F 78% 30.06 in 10.0 mi WNW 9.2 mph - N/A   Clear
5:55 AM 16.7 °F 4.5 °F 11.5 °F 80% 30.07 in 10.0 mi WNW 10.4 mph - N/A   Clear
6:15 AM 16.3 °F 5.7 °F 11.1 °F 80% 30.07 in 10.0 mi WNW 8.1 mph - N/A   Clear
6:35 AM 15.6 °F 2.5 °F 10.4 °F 80% 30.08 in 10.0 mi WNW 11.5 mph - N/A   Clear
6:55 AM 14.9 °F 5.0 °F 10.2 °F 82% 30.08 in 10.0 mi WNW 6.9 mph - N/A   Clear
7:15 AM 14.4 °F 2.4 °F 9.5 °F 81% 30.09 in 10.0 mi WNW 9.2 mph - N/A   Clear
7:35 AM 14.4 °F 2.4 °F 9.5 °F 81% 30.09 in 10.0 mi WNW 9.2 mph - N/A   Clear
7:55 AM 14.4 °F 2.4 °F 9.1 °F 80% 30.10 in 10.0 mi WNW 9.2 mph - N/A   Clear
8:15 AM 14.9 °F 3.1 °F 9.3 °F 79% 30.11 in 10.0 mi WNW 9.2 mph - N/A   Clear
8:35 AM 14.9 °F 2.3 °F 9.1 °F 78% 30.12 in 10.0 mi WNW 10.4 mph - N/A   Clear
8:55 AM 15.1 °F 1.1 °F 8.6 °F 76% 30.12 in 10.0 mi WNW 12.7 mph - N/A   Clear
9:15 AM 15.6 °F 1.2 °F 8.6 °F 74% 30.12 in 10.0 mi WNW 13.8 mph - N/A   Clear
9:35 AM 15.8 °F 3.4 °F 8.8 °F 74% 30.12 in 10.0 mi WNW 10.4 mph 16.1 mph N/A   Clear
9:55 AM 15.4 °F 3.8 °F 8.6 °F 74% 30.11 in 10.0 mi WNW 9.2 mph - N/A   Scattered Clouds
10:15 AM 16.3 °F 3.4 °F 9.0 °F 73% 30.12 in 10.0 mi WNW 11.5 mph - N/A   Mostly Cloudy
10:35 AM 16.5 °F 3.6 °F 9.1 °F 73% 30.13 in 10.0 mi WNW 11.5 mph 17.3 mph N/A   Mostly Cloudy
10:55 AM 16.9 °F 3.4 °F 9.1 °F 72% 30.12 in 10.0 mi West 12.7 mph 16.1 mph N/A   Overcast
11:15 AM 16.2 °F 4.7 °F 9.0 °F 73% 30.11 in 10.0 mi West 9.2 mph - N/A   Mostly Cloudy
11:35 AM 17.6 °F 4.3 °F 9.9 °F 72% 30.11 in 10.0 mi WNW 12.7 mph - N/A   Scattered Clouds
11:55 AM 17.6 °F 5.7 °F 10.0 °F 72% 30.10 in 10.0 mi West 10.4 mph 16.1 mph N/A   Scattered Clouds
12:15 PM 19.4 °F 6.6 °F 11.3 °F 71% 30.09 in 10.0 mi WNW 12.7 mph 18.4 mph N/A   Mostly Cloudy
12:35 PM 18.1 °F 5.0 °F 10.0 °F 71% 30.09 in 10.0 mi WNW 12.7 mph 17.3 mph N/A   Scattered Clouds
12:55 PM 19.9 °F 7.9 °F 11.7 °F 70% 30.08 in 10.0 mi West 11.5 mph - N/A   Mostly Cloudy
1:15 PM 19.4 °F 8.6 °F 11.1 °F 70% 30.08 in 10.0 mi WNW 9.2 mph - N/A   Scattered Clouds
1:35 PM 20.5 °F 8.0 °F 11.3 °F 68% 30.07 in 10.0 mi West 12.7 mph 17.3 mph N/A   Mostly Cloudy
1:55 PM 20.1 °F 9.5 °F 10.9 °F 68% 30.06 in 10.0 mi West 9.2 mph - N/A   Scattered Clouds
2:15 PM 19.6 °F 8.9 °F 10.8 °F 69% 30.07 in 10.0 mi West 9.2 mph - N/A   Scattered Clouds
2:35 PM 20.7 °F 9.5 °F 11.1 °F 67% 30.06 in 10.0 mi West 10.4 mph - N/A   Clear
2:55 PM 20.7 °F 10.2 °F 10.4 °F 65% 30.06 in 10.0 mi WSW 9.2 mph - N/A   Clear
3:15 PM 21.2 °F 10.1 °F 10.8 °F 64% 30.06 in 10.0 mi West 10.4 mph - N/A   Clear
3:35 PM 21.2 °F 11.7 °F 11.1 °F 65% 30.06 in 10.0 mi SW 8.1 mph - N/A   Clear
3:55 PM 20.8 °F 7.3 °F 11.1 °F 66% 30.06 in 10.0 mi WSW 15.0 mph - N/A   Clear
4:15 PM 20.5 °F 8.0 °F 10.8 °F 66% 30.06 in 10.0 mi WSW 12.7 mph - N/A   Clear
4:35 PM 19.8 °F 8.3 °F 10.9 °F 69% 30.05 in 10.0 mi WSW 10.4 mph - N/A   Clear
4:55 PM 19.4 °F 10.4 °F 11.3 °F 71% 30.05 in 10.0 mi WSW 6.9 mph 10.4 mph N/A   Scattered Clouds
5:15 PM 19.0 °F 10.0 °F 12.0 °F 74% 30.05 in 10.0 mi West 6.9 mph - N/A   Scattered Clouds
5:35 PM 18.5 °F 8.4 °F 11.8 °F 75% 30.04 in 10.0 mi WSW 8.1 mph - N/A   Clear
5:55 PM 18.1 °F 11.3 °F 11.7 °F 76% 30.03 in 10.0 mi WSW 4.6 mph - N/A   Clear
6:15 PM 18.1 °F 12.9 °F 11.3 °F 75% 30.03 in 10.0 mi SW 3.5 mph - N/A   Clear
6:35 PM 17.4 °F 8.0 °F 11.5 °F 78% 30.01 in 10.0 mi SSW 6.9 mph - N/A   Clear
6:55 PM 17.8 °F 10.9 °F 12.4 °F 79% 30.03 in 10.0 mi SW 4.6 mph - N/A   Clear
7:15 PM 18.1 °F 11.3 °F 12.9 °F 80% 30.02 in 10.0 mi SSW 4.6 mph - N/A   Clear
7:35 PM 18.1 °F 7.1 °F 13.1 °F 81% 30.00 in 10.0 mi SSW 9.2 mph - N/A   Clear
7:55 PM 18.1 °F 7.1 °F 13.1 °F 81% 29.98 in 10.0 mi South 9.2 mph - N/A   Clear
8:15 PM 19.2 °F 7.7 °F 13.3 °F 78% 29.96 in 10.0 mi SSW 10.4 mph - N/A   Clear
8:35 PM 19.4 °F 6.6 °F 13.5 °F 78% 29.95 in 10.0 mi SSW 12.7 mph - N/A   Scattered Clouds
8:55 PM 19.4 °F 6.6 °F 13.1 °F 76% 29.94 in 10.0 mi South 12.7 mph - N/A   Scattered Clouds
9:15 PM 19.4 °F 5.5 °F 13.1 °F 76% 29.93 in 10.0 mi SSW 15.0 mph - N/A   Mostly Cloudy
9:35 PM 20.1 °F 6.4 °F 14.0 °F 77% 29.91 in 10.0 mi SSW 15.0 mph - N/A   Mostly Cloudy
9:55 PM 20.7 °F 8.2 °F 14.0 °F 75% 29.90 in 10.0 mi SSW 12.7 mph 19.6 mph N/A   Overcast
10:15 PM 21.0 °F 8.1 °F 14.0 °F 74% 29.90 in 10.0 mi SSW 13.8 mph - N/A   Overcast
10:35 PM 21.6 °F 8.2 °F 14.7 °F 75% 29.90 in 10.0 mi SSW 15.0 mph - N/A   Overcast
10:55 PM 21.9 °F 9.2 °F 14.9 °F 74% 29.87 in 10.0 mi SSW 13.8 mph - N/A   Overcast
11:15 PM 22.1 °F 8.9 °F 14.9 °F 74% 29.85 in 10.0 mi SSW 15.0 mph - N/A   Overcast
11:35 PM 23.0 °F 11.1 °F 15.3 °F 72% 29.85 in 10.0 mi SSW 12.7 mph 20.7 mph N/A   Overcast
11:55 PM 23.2 °F 10.3 °F 15.6 °F 73% 29.84 in 10.0 mi SSW 15.0 mph - N/A   Overcast